Time;durP1;ratioP1;P1;durP2;ratioP2;P2;SDS_P1;SDS_P2;PMS_P1;PMS_P2;Temp;Humidity;BMP_temperature;BMP_pressure;BME280_temperature;BME280_humidity;BME280_pressure;Samples;Min_cycle;Max_cycle;Signal;HPM_P1;HPM_P2
2022/04/24 00:02:13;;;;;;;34.33;20.02;;;12.00;99.90;;;;;;5098392;28;20044;-83
2022/04/24 00:04:40;;;;;;;34.85;21.02;;;12.00;99.90;;;;;;5098143;28;20024;-82
2022/04/24 00:07:09;;;;;;;32.85;20.73;;;12.00;99.90;;;;;;5098238;28;20017;-83
2022/04/24 00:09:37;;;;;;;34.40;20.63;;;11.90;99.90;;;;;;5080863;28;20059;-82
2022/04/24 00:12:06;;;;;;;36.90;21.38;;;12.00;99.90;;;;;;5076851;28;20028;-84
2022/04/24 00:14:32;;;;;;;33.97;21.67;;;11.90;99.90;;;;;;5079178;28;20028;-82
2022/04/24 00:16:58;;;;;;;35.10;23.45;;;11.90;99.90;;;;;;5095746;28;20028;-83
2022/04/24 00:19:24;;;;;;;35.03;22.45;;;11.90;99.90;;;;;;5089255;28;20030;-85
2022/04/24 00:21:50;;;;;;;38.88;23.10;;;11.80;99.90;;;;;;5112885;22;20044;-85
2022/04/24 00:24:16;;;;;;;36.25;22.90;;;11.80;99.90;;;;;;5092170;28;20033;-85
2022/04/24 00:26:42;;;;;;;39.25;22.95;;;11.80;99.90;;;;;;5090394;28;20025;-86
2022/04/24 00:29:07;;;;;;;37.22;22.60;;;11.80;99.90;;;;;;5071409;28;20020;-86
2022/04/24 00:31:33;;;;;;;35.22;22.88;;;11.80;99.90;;;;;;5089987;28;20400;-87
2022/04/24 00:33:59;;;;;;;36.05;22.95;;;11.80;99.90;;;;;;5091476;28;20054;-86
2022/04/24 00:36:25;;;;;;;37.97;23.35;;;11.80;99.90;;;;;;5073276;28;20028;-86
2022/04/24 00:38:51;;;;;;;39.08;23.33;;;11.70;99.90;;;;;;5087337;28;20031;-87
2022/04/24 00:41:16;;;;;;;35.72;22.85;;;11.70;99.90;;;;;;5085378;28;20024;-85
2022/04/24 00:43:52;;;;;;;43.28;22.73;;;11.70;99.90;;;;;;5082172;28;20021;-85
2022/04/24 00:46:51;;;;;;;36.80;22.95;;;11.70;99.90;;;;;;5081599;28;20115;-86
2022/04/24 00:49:18;;;;;;;38.22;23.83;;;11.60;99.90;;;;;;5082506;28;20476;-84
2022/04/24 00:51:44;;;;;;;39.03;23.73;;;11.60;99.90;;;;;;5076510;28;20277;-86
2022/04/24 00:54:11;;;;;;;40.10;23.77;;;11.50;99.90;;;;;;5086579;28;20487;-86
2022/04/24 00:56:38;;;;;;;39.20;24.30;;;11.50;99.90;;;;;;5084421;28;20435;-85
2022/04/24 00:59:06;;;;;;;38.05;23.92;;;11.50;99.90;;;;;;5067308;28;20032;-86
2022/04/24 01:01:33;;;;;;;38.72;24.58;;;11.40;99.90;;;;;;5089508;28;20801;-86
2022/04/24 01:04:01;;;;;;;42.70;24.90;;;11.40;99.90;;;;;;5075345;28;20017;-83
2022/04/24 01:06:39;;;;;;;37.63;23.20;;;11.30;99.90;;;;;;5097075;28;20021;-85
2022/04/24 01:09:09;;;;;;;41.75;24.27;;;11.20;99.90;;;;;;5095583;28;20025;-86
2022/04/24 01:11:35;;;;;;;41.00;24.63;;;11.20;99.90;;;;;;5078345;28;20032;-85
2022/04/24 01:14:01;;;;;;;42.50;25.02;;;11.10;99.90;;;;;;5079387;28;20041;-85
2022/04/24 01:16:27;;;;;;;45.67;24.00;;;11.00;99.90;;;;;;5075947;28;20037;-86
2022/04/24 01:18:54;;;;;;;41.15;24.38;;;11.10;99.90;;;;;;5092835;28;20033;-86
2022/04/24 01:21:19;;;;;;;41.55;24.77;;;11.00;99.90;;;;;;5093113;28;20063;-84
2022/04/24 01:23:45;;;;;;;41.80;25.00;;;10.90;99.90;;;;;;5093095;28;20028;-86
2022/04/24 01:26:12;;;;;;;41.92;24.35;;;10.80;99.90;;;;;;5094244;28;20028;-86
2022/04/24 01:28:38;;;;;;;41.97;24.67;;;10.70;99.90;;;;;;5095232;28;20008;-85
2022/04/24 01:31:05;;;;;;;43.20;25.92;;;10.70;99.90;;;;;;5079672;28;20175;-87
2022/04/24 01:33:31;;;;;;;40.58;25.05;;;10.60;99.90;;;;;;5096734;28;20029;-86
2022/04/24 01:35:58;;;;;;;41.78;24.73;;;10.60;99.90;;;;;;5093162;28;20024;-85
2022/04/24 01:38:24;;;;;;;42.83;24.17;;;10.50;99.90;;;;;;5074153;28;20023;-86
2022/04/24 01:40:50;;;;;;;40.47;24.80;;;10.50;99.90;;;;;;5092448;28;20075;-86
2022/04/24 01:43:16;;;;;;;45.38;24.70;;;10.40;99.90;;;;;;5072111;28;20035;-86
2022/04/24 01:45:43;;;;;;;40.70;24.38;;;10.40;99.90;;;;;;5092938;28;20044;-86
2022/04/24 01:48:09;;;;;;;42.42;24.23;;;10.40;99.90;;;;;;5079109;28;20020;-85
2022/04/24 01:50:35;;;;;;;43.70;24.48;;;10.30;99.90;;;;;;5096780;28;20036;-86
2022/04/24 01:53:01;;;;;;;43.63;23.80;;;10.30;99.90;;;;;;5096098;28;20032;-85
2022/04/24 01:55:27;;;;;;;38.40;23.88;;;10.30;99.90;;;;;;5096979;28;20029;-85
2022/04/24 01:57:53;;;;;;;41.00;24.15;;;10.30;99.90;;;;;;5098202;28;20043;-85
2022/04/24 02:00:20;;;;;;;42.47;23.83;;;10.20;99.90;;;;;;5082181;28;20033;-86
2022/04/24 02:02:47;;;;;;;42.05;24.58;;;10.20;99.90;;;;;;5099627;28;20060;-84
2022/04/24 02:05:13;;;;;;;44.95;26.00;;;10.20;99.90;;;;;;5081954;28;20035;-86
2022/04/24 02:07:40;;;;;;;42.08;24.88;;;10.10;99.90;;;;;;5081027;28;20017;-83
2022/04/24 02:10:06;;;;;;;43.08;25.58;;;10.10;99.90;;;;;;5082471;28;20012;-84
2022/04/24 02:12:32;;;;;;;40.30;24.70;;;10.00;99.90;;;;;;5099899;28;20039;-84
2022/04/24 02:14:57;;;;;;;39.80;23.63;;;10.00;99.90;;;;;;5100038;28;20036;-85
2022/04/24 02:17:23;;;;;;;42.53;25.10;;;10.00;99.90;;;;;;5100192;28;20020;-85
2022/04/24 02:19:49;;;;;;;46.78;25.63;;;9.90;99.90;;;;;;5079454;28;20029;-84
2022/04/24 02:22:15;;;;;;;40.00;24.98;;;9.90;99.90;;;;;;5093980;28;20055;-84
2022/04/24 02:24:41;;;;;;;42.33;23.88;;;9.90;99.90;;;;;;5093629;28;20062;-86
2022/04/24 02:27:07;;;;;;;41.63;24.65;;;9.90;99.90;;;;;;5093537;28;20017;-86
2022/04/24 02:29:33;;;;;;;43.20;24.27;;;9.80;99.90;;;;;;5075807;28;20028;-86
2022/04/24 02:31:59;;;;;;;44.45;24.63;;;9.80;99.90;;;;;;5089344;28;20068;-86
2022/04/24 02:34:26;;;;;;;46.63;25.33;;;9.80;99.90;;;;;;5068341;28;20038;-85
2022/04/24 02:36:52;;;;;;;44.55;24.45;;;9.80;99.90;;;;;;5070373;28;20017;-85
2022/04/24 02:39:19;;;;;;;44.03;24.42;;;9.80;99.90;;;;;;5089756;28;20089;-86
2022/04/24 02:41:45;;;;;;;42.47;23.90;;;9.80;99.90;;;;;;5077097;28;20028;-86
2022/04/24 02:44:10;;;;;;;43.78;25.10;;;9.80;99.90;;;;;;5097269;28;20120;-86
2022/04/24 02:46:37;;;;;;;41.50;24.27;;;9.80;99.90;;;;;;5096244;28;20025;-85
2022/04/24 02:49:02;;;;;;;42.63;24.02;;;9.80;99.90;;;;;;5097971;28;20033;-84
2022/04/24 02:51:28;;;;;;;39.65;23.13;;;9.80;99.90;;;;;;5093318;28;20096;-85
2022/04/24 02:53:54;;;;;;;43.45;23.75;;;9.70;99.90;;;;;;5073450;28;20035;-86
2022/04/24 02:56:20;;;;;;;41.05;23.08;;;9.70;99.90;;;;;;5089766;28;20027;-85
2022/04/24 02:58:45;;;;;;;36.92;21.58;;;9.70;99.90;;;;;;5088840;28;20024;-86
2022/04/24 03:01:12;;;;;;;41.08;22.30;;;9.70;99.90;;;;;;5069361;28;20472;-86
2022/04/24 03:03:38;;;;;;;42.70;22.63;;;9.70;99.90;;;;;;5087949;28;20544;-85
2022/04/24 03:06:05;;;;;;;38.03;21.88;;;9.70;99.90;;;;;;5090616;28;20046;-86
2022/04/24 03:08:31;;;;;;;38.10;21.73;;;9.70;99.90;;;;;;5071651;28;20086;-86
2022/04/24 03:10:57;;;;;;;40.55;21.38;;;9.70;99.90;;;;;;5070862;28;20029;-87
2022/04/24 03:13:23;;;;;;;40.00;21.80;;;9.70;99.90;;;;;;5087318;28;20041;-86
2022/04/24 03:15:49;;;;;;;36.33;21.90;;;9.70;99.90;;;;;;5087798;28;20075;-86
2022/04/24 03:18:15;;;;;;;35.25;20.17;;;9.60;99.90;;;;;;5092557;28;20044;-85
2022/04/24 03:20:41;;;;;;;38.95;20.85;;;9.60;99.90;;;;;;5098745;28;20159;-83
2022/04/24 03:23:06;;;;;;;33.28;19.50;;;9.60;99.90;;;;;;5081605;28;20036;-85
2022/04/24 03:25:32;;;;;;;36.45;19.55;;;9.50;99.90;;;;;;5097360;28;20016;-83
2022/04/24 03:27:58;;;;;;;32.67;19.48;;;9.60;99.90;;;;;;5095445;28;20107;-84
2022/04/24 03:30:24;;;;;;;34.25;19.23;;;9.60;99.90;;;;;;5091983;28;20032;-85
2022/04/24 03:32:50;;;;;;;30.25;17.75;;;9.60;99.90;;;;;;5092908;28;20062;-86
2022/04/24 03:35:15;;;;;;;32.45;18.35;;;9.60;99.90;;;;;;5095029;28;20112;-83
2022/04/24 03:37:43;;;;;;;27.55;17.70;;;9.60;99.90;;;;;;5094438;28;20040;-84
2022/04/24 03:40:10;;;;;;;28.00;16.98;;;9.60;99.90;;;;;;5080366;28;20041;-85
2022/04/24 03:42:36;;;;;;;28.40;16.45;;;9.60;99.90;;;;;;5081028;28;20020;-86
2022/04/24 03:45:06;;;;;;;28.65;17.48;;;9.60;99.90;;;;;;5080936;28;20062;-84
2022/04/24 03:47:32;;;;;;;29.77;17.33;;;9.60;99.90;;;;;;5098267;28;20016;-87
2022/04/24 03:49:58;;;;;;;31.35;16.60;;;9.60;99.90;;;;;;5073898;28;20050;-85
2022/04/24 03:52:24;;;;;;;30.20;16.42;;;9.50;99.90;;;;;;5085142;28;20036;-84
2022/04/24 03:54:50;;;;;;;29.85;16.75;;;9.60;99.90;;;;;;5089296;28;20012;-86
2022/04/24 03:57:16;;;;;;;29.55;17.50;;;9.50;99.90;;;;;;5081009;28;20090;-84
2022/04/24 03:59:41;;;;;;;32.80;16.48;;;9.50;99.90;;;;;;5098246;28;20033;-85
2022/04/24 04:02:07;;;;;;;30.27;17.20;;;9.50;99.90;;;;;;5097905;28;20029;-85
2022/04/24 04:04:34;;;;;;;29.33;16.88;;;9.50;99.90;;;;;;5098129;28;20021;-83
2022/04/24 04:07:00;;;;;;;26.92;17.65;;;9.50;99.90;;;;;;5094775;28;20070;-86
2022/04/24 04:09:25;;;;;;;29.83;17.08;;;9.50;99.90;;;;;;5054069;28;20025;-86
2022/04/24 04:11:51;;;;;;;30.75;17.80;;;9.50;99.90;;;;;;5086907;28;20032;-85
2022/04/24 04:14:18;;;;;;;26.52;15.85;;;9.50;99.90;;;;;;5068618;28;20025;-85
2022/04/24 04:16:44;;;;;;;26.55;15.93;;;9.50;99.90;;;;;;5085685;28;20063;-86
2022/04/24 04:19:10;;;;;;;23.70;15.55;;;9.50;99.90;;;;;;5086659;28;20029;-86
2022/04/24 04:21:35;;;;;;;24.20;15.52;;;9.60;99.90;;;;;;5088424;28;20067;-86
2022/04/24 04:24:01;;;;;;;23.90;15.20;;;9.60;99.90;;;;;;5088680;28;20044;-86
2022/04/24 04:26:27;;;;;;;28.10;16.80;;;9.60;99.90;;;;;;5090177;28;20035;-85
2022/04/24 04:28:53;;;;;;;28.50;15.63;;;9.60;99.90;;;;;;5072298;28;20025;-86
2022/04/24 04:31:19;;;;;;;30.65;16.27;;;9.60;99.90;;;;;;5088677;28;20031;-87
2022/04/24 04:33:45;;;;;;;24.50;14.68;;;9.70;99.90;;;;;;5058098;28;20100;-87
2022/04/24 04:36:11;;;;;;;30.02;15.13;;;9.70;99.90;;;;;;5076910;28;20025;-85
2022/04/24 04:38:37;;;;;;;28.73;15.65;;;9.80;99.90;;;;;;5093330;28;20029;-86
2022/04/24 04:41:04;;;;;;;23.20;13.93;;;9.80;99.90;;;;;;5091282;28;20017;-86
2022/04/24 04:43:30;;;;;;;23.42;14.05;;;9.90;99.90;;;;;;5079109;28;20025;-86
2022/04/24 04:45:56;;;;;;;29.63;14.13;;;9.90;99.90;;;;;;5076472;28;20035;-85
2022/04/24 04:48:22;;;;;;;21.63;13.73;;;9.90;99.90;;;;;;5097398;28;20077;-86
2022/04/24 04:50:48;;;;;;;23.45;13.40;;;10.00;99.90;;;;;;5079975;28;20078;-85
2022/04/24 04:53:14;;;;;;;20.33;12.63;;;10.10;99.90;;;;;;5097226;28;20032;-85
2022/04/24 04:55:40;;;;;;;21.00;13.23;;;10.10;99.90;;;;;;5079830;28;20055;-85
2022/04/24 04:58:06;;;;;;;26.00;13.75;;;10.20;99.90;;;;;;5097492;28;20076;-86
2022/04/24 05:00:31;;;;;;;25.77;13.60;;;10.30;99.90;;;;;;5096819;28;20032;-87
2022/04/24 05:02:57;;;;;;;17.90;11.80;;;10.40;99.90;;;;;;5085772;28;20024;-86
2022/04/24 05:05:23;;;;;;;20.25;13.00;;;10.50;99.90;;;;;;5068132;28;20056;-85
2022/04/24 05:07:49;;;;;;;22.95;12.55;;;10.70;99.90;;;;;;5086373;28;20025;-86
2022/04/24 05:10:14;;;;;;;24.13;12.80;;;10.80;99.90;;;;;;5086236;28;20032;-86
2022/04/24 05:12:40;;;;;;;18.20;11.98;;;11.00;99.90;;;;;;5085826;28;20024;-86
2022/04/24 05:15:08;;;;;;;21.27;11.55;;;11.20;99.90;;;;;;5088642;28;20025;-86
2022/04/24 05:17:36;;;;;;;21.90;11.20;;;11.40;99.90;;;;;;5094722;28;20043;-85
2022/04/24 05:20:06;;;;;;;18.83;11.35;;;11.60;99.90;;;;;;5087435;28;20025;-87
2022/04/24 05:22:33;;;;;;;15.88;10.93;;;11.90;99.90;;;;;;5067989;28;20088;-87
2022/04/24 05:24:59;;;;;;;13.98;10.20;;;12.10;99.90;;;;;;5094452;28;20072;-87
2022/04/24 05:27:26;;;;;;;15.43;9.80;;;12.30;99.90;;;;;;5096577;28;20029;-85
2022/04/24 05:29:51;;;;;;;13.88;9.77;;;12.40;99.90;;;;;;5093372;28;20017;-86
2022/04/24 05:32:18;;;;;;;14.85;9.68;;;12.50;99.90;;;;;;5090337;28;20037;-86
2022/04/24 05:34:46;;;;;;;12.98;9.02;;;12.50;99.90;;;;;;5088847;28;20434;-87
2022/04/24 05:37:12;;;;;;;15.20;10.15;;;12.40;99.90;;;;;;5071328;28;20462;-87
2022/04/24 05:39:38;;;;;;;16.23;10.57;;;12.40;99.90;;;;;;5088014;28;20080;-86
2022/04/24 05:42:05;;;;;;;16.23;10.02;;;12.40;99.90;;;;;;5081049;28;20044;-86
2022/04/24 05:44:30;;;;;;;16.77;10.02;;;12.40;99.90;;;;;;5074315;28;20059;-86
2022/04/24 05:46:56;;;;;;;15.25;10.60;;;12.50;99.90;;;;;;5077219;28;20017;-86
2022/04/24 05:49:22;;;;;;;15.63;9.45;;;12.50;99.90;;;;;;5076336;28;20016;-87
2022/04/24 05:51:48;;;;;;;14.80;9.75;;;12.60;99.90;;;;;;5076055;28;20017;-86
2022/04/24 05:54:15;;;;;;;15.65;9.07;;;12.70;99.90;;;;;;5074113;28;20039;-86
2022/04/24 05:56:41;;;;;;;12.60;8.73;;;13.00;99.90;;;;;;5078379;28;20037;-87
2022/04/24 05:59:08;;;;;;;13.00;8.63;;;13.20;99.90;;;;;;5095532;28;20418;-87
2022/04/24 06:01:34;;;;;;;11.57;8.45;;;13.60;99.90;;;;;;5061325;28;20020;-87
2022/04/24 06:04:00;;;;;;;14.07;9.65;;;13.90;99.90;;;;;;5061982;28;20052;-86
2022/04/24 06:06:29;;;;;;;19.40;9.02;;;14.10;99.90;;;;;;5097484;28;20032;-87
2022/04/24 06:08:54;;;;;;;18.60;8.27;;;14.20;99.90;;;;;;5098542;28;20050;-87
2022/04/24 06:11:20;;;;;;;15.27;8.63;;;14.40;99.90;;;;;;5097595;28;20407;-86
2022/04/24 06:13:47;;;;;;;16.17;7.82;;;14.50;99.90;;;;;;5097247;28;20483;-87
2022/04/24 06:16:13;;;;;;;13.05;8.02;;;14.70;99.90;;;;;;5079691;28;20020;-85
2022/04/24 06:18:39;;;;;;;10.63;7.40;;;15.00;99.90;;;;;;5079500;28;20028;-85
2022/04/24 06:21:05;;;;;;;10.52;7.20;;;15.10;99.90;;;;;;5099144;28;20066;-86
2022/04/24 06:23:31;;;;;;;9.10;6.28;;;15.20;99.90;;;;;;5072352;22;20393;-82
2022/04/24 06:25:58;;;;;;;10.10;6.85;;;15.30;99.90;;;;;;5042688;28;20090;-83
2022/04/24 06:28:25;;;;;;;12.27;5.53;;;15.40;99.90;;;;;;5042939;28;20021;-81
2022/04/24 06:30:51;;;;;;;10.13;4.72;;;15.20;99.90;;;;;;5045065;28;20044;-81
2022/04/24 06:33:17;;;;;;;12.50;5.10;;;15.00;99.90;;;;;;5043336;28;20378;-82
2022/04/24 06:35:45;;;;;;;11.40;5.20;;;14.90;99.90;;;;;;5039208;28;20029;-83
2022/04/24 06:38:11;;;;;;;10.40;4.80;;;14.80;99.90;;;;;;5051794;28;20014;-80
2022/04/24 06:40:37;;;;;;;10.00;4.35;;;14.80;99.90;;;;;;5050842;28;20392;-84
2022/04/24 06:43:06;;;;;;;8.55;4.60;;;14.80;99.90;;;;;;5062856;28;20009;-81
2022/04/24 06:45:34;;;;;;;7.38;3.72;;;14.80;99.90;;;;;;5033905;28;20036;-83
2022/04/24 06:48:06;;;;;;;9.07;4.28;;;14.90;99.90;;;;;;5050294;28;20014;-87
2022/04/24 06:50:34;;;;;;;9.57;4.35;;;14.90;99.90;;;;;;5052862;28;20029;-81
2022/04/24 06:53:02;;;;;;;9.10;4.13;;;14.80;99.90;;;;;;5036842;28;20028;-83
2022/04/24 06:55:29;;;;;;;8.45;4.40;;;14.80;99.90;;;;;;5056006;28;20502;-85
2022/04/24 06:57:55;;;;;;;9.07;4.57;;;14.90;99.90;;;;;;5024081;28;20092;-85
2022/04/24 07:00:22;;;;;;;7.28;4.20;;;15.00;99.90;;;;;;5050317;28;20064;-82
2022/04/24 07:02:48;;;;;;;8.90;4.05;;;15.10;99.90;;;;;;5067660;28;20029;-85
2022/04/24 07:05:15;;;;;;;11.00;6.75;;;15.10;99.90;;;;;;5049117;28;20009;-82
2022/04/24 07:07:41;;;;;;;10.82;5.07;;;15.10;99.90;;;;;;5067513;28;20097;-84
2022/04/24 07:10:10;;;;;;;12.75;5.63;;;15.20;99.90;;;;;;5064437;28;20021;-83
2022/04/24 07:12:52;;;;;;;11.15;5.20;;;15.20;99.90;;;;;;5067671;28;20044;-84
2022/04/24 07:15:20;;;;;;;11.13;4.93;;;15.20;99.90;;;;;;5046774;28;20025;-85
2022/04/24 07:17:47;;;;;;;13.32;6.47;;;15.30;99.90;;;;;;5050410;28;20039;-84
2022/04/24 07:20:15;;;;;;;10.63;5.63;;;15.30;99.90;;;;;;5065858;28;20170;-82
2022/04/24 07:22:51;;;;;;;17.73;5.63;;;15.20;99.90;;;;;;5030475;28;20036;-84
2022/04/24 07:25:28;;;;;;;8.32;3.50;;;15.20;99.90;;;;;;5055563;28;20029;-84
2022/04/24 07:27:54;;;;;;;7.05;3.13;;;15.20;99.90;;;;;;5057225;28;20037;-85
2022/04/24 07:30:21;;;;;;;9.00;2.80;;;15.10;99.90;;;;;;5052669;28;20025;-84
2022/04/24 07:32:55;;;;;;;8.23;2.60;;;15.10;99.90;;;;;;5038301;28;20037;-87
2022/04/24 07:35:23;;;;;;;7.20;2.67;;;15.00;99.90;;;;;;5057343;28;20036;-82
2022/04/24 07:37:49;;;;;;;10.93;2.92;;;15.00;99.90;;;;;;5055835;28;20036;-82
2022/04/24 07:40:19;;;;;;;13.70;2.95;;;14.90;99.90;;;;;;5054873;28;20040;-86
2022/04/24 07:42:55;;;;;;;6.57;2.67;;;14.90;99.90;;;;;;5058323;28;20026;-84
2022/04/24 07:45:26;;;;;;;4.07;2.20;;;15.00;99.90;;;;;;5035721;28;20059;-84
2022/04/24 07:47:54;;;;;;;8.60;2.63;;;15.10;99.90;;;;;;5040940;28;20028;-81
2022/04/24 07:50:22;;;;;;;7.93;2.40;;;15.00;99.90;;;;;;5041772;28;20021;-83
2022/04/24 07:52:48;;;;;;;7.05;2.10;;;15.10;99.90;;;;;;5061564;28;20052;-82
2022/04/24 07:55:22;;;;;;;6.18;2.53;;;15.00;99.90;;;;;;5045088;28;20045;-82
2022/04/24 07:57:49;;;;;;;8.52;3.25;;;15.10;99.90;;;;;;5066859;28;20101;-83
2022/04/24 08:00:17;;;;;;;7.63;3.33;;;15.30;99.90;;;;;;5066946;28;20032;-81
2022/04/24 08:02:54;;;;;;;11.80;3.83;;;15.30;99.90;;;;;;5055826;28;20018;-81
2022/04/24 08:05:25;;;;;;;12.27;4.68;;;15.40;99.90;;;;;;5066220;28;20033;-83
2022/04/24 08:07:53;;;;;;;13.80;4.30;;;15.60;99.90;;;;;;5056166;28;20077;-82
2022/04/24 08:10:20;;;;;;;9.38;3.13;;;15.60;99.90;;;;;;5033580;28;20017;-85
2022/04/24 08:12:47;;;;;;;10.45;3.22;;;15.60;99.90;;;;;;5051529;28;20037;-82
2022/04/24 08:15:13;;;;;;;10.13;2.35;;;15.60;99.90;;;;;;5048758;28;20398;-83
2022/04/24 08:17:39;;;;;;;12.43;2.92;;;15.70;99.90;;;;;;5051785;28;20029;-82
2022/04/24 08:20:06;;;;;;;10.35;2.88;;;15.70;99.90;;;;;;5027034;28;20663;-83
2022/04/24 08:22:46;;;;;;;11.77;2.15;;;15.80;99.90;;;;;;5033805;28;20029;-83
2022/04/24 08:25:17;;;;;;;9.13;2.67;;;15.80;99.90;;;;;;5042950;28;20095;-82
2022/04/24 08:27:44;;;;;;;8.23;2.33;;;15.80;99.90;;;;;;5063330;28;20033;-82
2022/04/24 08:30:11;;;;;;;9.18;2.38;;;15.90;99.90;;;;;;5046415;28;20025;-84
2022/04/24 08:32:39;;;;;;;9.23;2.67;;;15.90;99.90;;;;;;5060795;28;20542;-82
2022/04/24 08:35:10;;;;;;;9.38;2.15;;;15.90;99.90;;;;;;5043804;28;20028;-83
2022/04/24 08:37:36;;;;;;;11.95;2.70;;;16.00;99.90;;;;;;5045607;28;20033;-82
2022/04/24 08:40:04;;;;;;;11.57;2.40;;;16.00;99.90;;;;;;5069570;28;20055;-83
2022/04/24 08:42:30;;;;;;;11.57;2.38;;;16.10;99.90;;;;;;5050758;28;20037;-82
2022/04/24 08:44:56;;;;;;;15.18;2.53;;;16.10;99.90;;;;;;5065931;28;20077;-83
2022/04/24 08:47:24;;;;;;;11.70;3.10;;;16.10;99.90;;;;;;5047526;28;20056;-82
2022/04/24 08:49:54;;;;;;;7.65;2.35;;;16.10;99.90;;;;;;5046406;28;20484;-84
2022/04/24 08:52:20;;;;;;;9.23;2.30;;;16.10;99.90;;;;;;5046569;28;20121;-84
2022/04/24 08:54:46;;;;;;;9.07;2.90;;;16.10;99.90;;;;;;5066014;28;20032;-83
2022/04/24 08:57:12;;;;;;;7.32;2.17;;;16.10;99.90;;;;;;5048722;28;20025;-80
2022/04/24 08:59:39;;;;;;;8.77;2.38;;;16.10;99.90;;;;;;5065450;28;20089;-83
2022/04/24 09:02:06;;;;;;;15.75;2.63;;;16.00;99.90;;;;;;5065705;28;20100;-83
2022/04/24 09:04:38;;;;;;;13.20;2.65;;;16.00;99.90;;;;;;5066882;28;20032;-84
2022/04/24 09:07:06;;;;;;;9.18;2.45;;;16.10;99.90;;;;;;5061483;28;20064;-80
2022/04/24 09:09:44;;;;;;;9.90;3.35;;;16.10;99.90;;;;;;5042925;28;20048;-84
2022/04/24 09:12:14;;;;;;;9.95;2.58;;;16.20;99.90;;;;;;5063436;28;20045;-84
2022/04/24 09:14:40;;;;;;;7.20;2.53;;;16.10;99.90;;;;;;5061008;28;20476;-82
2022/04/24 09:17:15;;;;;;;8.63;2.53;;;16.20;99.90;;;;;;5042627;28;20032;-84
2022/04/24 09:19:40;;;;;;;;;;;16.30;99.90;;;;;;5043073;28;20033;-81
2022/04/24 09:22:11;;;;;;;11.55;3.05;;;16.40;99.90;;;;;;5071122;28;19915;-84
2022/04/24 09:24:43;;;;;;;12.68;2.85;;;16.40;99.90;;;;;;5061279;28;20029;-84
2022/04/24 09:27:10;;;;;;;7.28;1.83;;;16.50;99.90;;;;;;5059251;28;20378;-83
2022/04/24 09:29:39;;;;;;;9.15;2.67;;;16.50;99.90;;;;;;5060937;28;20032;-83
2022/04/24 09:32:15;;;;;;;7.47;2.40;;;16.60;99.90;;;;;;5074175;28;20084;-84
2022/04/24 09:34:41;;;;;;;15.48;3.88;;;16.60;99.90;;;;;;5059379;28;20037;-81
2022/04/24 09:37:09;;;;;;;6.15;2.53;;;16.70;99.90;;;;;;5053468;28;20025;-83
2022/04/24 09:39:37;;;;;;;11.80;2.65;;;16.70;99.90;;;;;;5054281;28;20041;-82
2022/04/24 09:42:10;;;;;;;7.68;2.10;;;16.70;99.90;;;;;;5072522;28;20108;-81
2022/04/24 09:44:39;;;;;;;9.93;3.80;;;16.70;99.90;;;;;;5053309;28;20089;-84
2022/04/24 09:47:05;;;;;;;10.48;2.72;;;16.80;99.90;;;;;;5070746;28;20040;-83
2022/04/24 09:49:43;;;;;;;12.00;2.70;;;16.70;99.90;;;;;;5072730;28;20057;-82
2022/04/24 09:52:14;;;;;;;16.77;2.85;;;16.70;99.90;;;;;;5071645;28;20033;-81
2022/04/24 09:54:44;;;;;;;13.80;2.88;;;16.70;99.90;;;;;;5075893;28;20016;-83
2022/04/24 09:57:12;;;;;;;14.73;2.95;;;16.70;99.90;;;;;;5074073;28;20033;-83
2022/04/24 09:59:39;;;;;;;12.57;2.78;;;16.70;99.90;;;;;;5076233;28;20032;-82
2022/04/24 10:02:06;;;;;;;13.65;3.03;;;16.80;99.90;;;;;;5058163;28;20033;-82
2022/04/24 10:04:38;;;;;;;8.48;2.28;;;16.90;99.90;;;;;;5056496;28;20075;-83
2022/04/24 10:07:15;;;;;;;15.48;3.33;;;16.90;99.90;;;;;;5049321;28;20032;-79
2022/04/24 10:09:43;;;;;;;14.45;2.92;;;17.00;99.90;;;;;;5065902;28;20055;-80
2022/04/24 10:12:18;;;;;;;10.32;2.35;;;17.00;99.90;;;;;;5065859;28;20029;-83
2022/04/24 10:14:49;;;;;;;;;;;16.90;99.90;;;;;;5066589;28;20036;-82
2022/04/24 10:17:26;;;;;;;11.10;2.47;;;16.90;99.90;;;;;;5069115;28;19916;-80
2022/04/24 10:20:29;;;;;;;10.23;1.80;;;17.00;99.90;;;;;;5073111;28;20083;-81
2022/04/24 10:22:56;;;;;;;11.82;2.13;;;16.90;99.90;;;;;;5074859;28;20027;-84
2022/04/24 10:25:39;;;;;;;8.23;2.63;;;16.90;99.90;;;;;;5072762;28;20024;-82
2022/04/24 10:28:35;;;;;;;7.43;2.17;;;17.00;99.90;;;;;;5055029;28;20436;-86
2022/04/24 10:31:03;;;;;;;10.30;2.47;;;17.00;99.90;;;;;;5052691;28;20025;-84
2022/04/24 10:33:32;;;;;;;8.23;2.40;;;17.00;99.90;;;;;;5033907;28;20029;-84
2022/04/24 10:36:05;;;;;;;12.68;2.47;;;17.00;99.90;;;;;;5057306;28;20089;-89
2022/04/24 10:38:33;;;;;;;6.78;2.33;;;17.10;99.90;;;;;;5044862;28;20005;-89
2022/04/24 10:41:07;;;;;;;9.52;2.80;;;17.20;99.90;;;;;;5045508;28;20017;-90
2022/04/24 10:43:48;;;;;;;10.30;2.90;;;17.20;99.90;;;;;;5047923;28;20043;-92
2022/04/24 10:46:34;;;;;;;8.00;2.50;;;17.20;99.90;;;;;;5041518;28;20177;-89
2022/04/24 10:49:11;;;;;;;8.50;2.53;;;17.30;99.90;;;;;;5026497;28;20017;-90
2022/04/24 10:51:58;;;;;;;6.72;2.20;;;17.40;99.90;;;;;;5042288;28;20040;-90
2022/04/24 10:54:35;;;;;;;8.40;2.20;;;17.50;99.90;;;;;;5041343;28;20034;-88
2022/04/24 10:57:13;;;;;;;7.45;2.00;;;17.70;99.90;;;;;;5041686;28;20025;-89
2022/04/24 10:59:53;;;;;;;8.68;2.00;;;17.90;99.90;;;;;;5056593;28;20033;-89
2022/04/24 11:02:26;;;;;;;8.02;2.40;;;18.40;99.90;;;;;;5037393;28;20045;-89
2022/04/24 11:05:04;;;;;;;11.75;2.40;;;19.90;99.90;;;;;;5051310;28;20029;-88
2022/04/24 11:07:31;;;;;;;9.18;2.38;;;22.00;97.30;;;;;;5035561;28;20093;-90
2022/04/24 11:10:04;;;;;;;14.02;2.33;;;23.30;94.40;;;;;;5048479;28;20017;-89
2022/04/24 11:12:32;;;;;;;10.05;2.20;;;25.40;91.20;;;;;;5049733;28;20488;-89
2022/04/24 11:15:09;;;;;;;6.72;1.60;;;26.20;84.40;;;;;;5061515;28;20017;-87
2022/04/24 11:17:35;;;;;;;7.72;2.08;;;25.00;81.70;;;;;;5034698;28;20025;-87
2022/04/24 11:20:10;;;;;;;4.13;1.70;;;23.80;82.30;;;;;;5045478;28;20024;-86
2022/04/24 11:22:46;;;;;;;;;;;23.30;83.40;;;;;;5067054;28;20043;-84
2022/04/24 11:25:17;;;;;;;7.28;2.05;;;22.90;84.50;;;;;;5076242;28;19900;-86
2022/04/24 11:27:44;;;;;;;9.18;1.80;;;23.60;83.10;;;;;;5062585;28;20029;-87
2022/04/24 11:30:26;;;;;;;6.32;2.38;;;24.80;81.20;;;;;;5062229;28;20416;-86
2022/04/24 11:32:59;;;;;;;5.88;1.95;;;26.10;77.10;;;;;;5046884;28;20029;-86
2022/04/24 11:35:27;;;;;;;4.05;1.23;;;27.40;72.60;;;;;;5066283;28;20087;-87
2022/04/24 11:37:54;;;;;;;11.40;1.65;;;28.00;69.90;;;;;;5045846;28;20032;-86
2022/04/24 11:40:22;;;;;;;3.78;1.58;;;28.10;68.00;;;;;;5061753;28;20055;-89
2022/04/24 11:42:48;;;;;;;7.50;1.63;;;28.50;66.60;;;;;;5050064;28;20044;-87
2022/04/24 11:50:53;;;;;;;5.65;1.55;;;25.90;63.90;;;;;;5067041;28;20029;-84
2022/04/24 11:53:21;;;;;;;6.18;2.28;;;25.10;64.40;;;;;;5063811;28;20017;-84
2022/04/24 11:56:03;;;;;;;5.47;2.03;;;25.00;64.50;;;;;;5036303;28;20044;-85
2022/04/24 11:58:36;;;;;;;4.15;1.35;;;24.90;63.60;;;;;;5015708;28;20038;-84
2022/04/24 12:01:07;;;;;;;6.75;2.00;;;24.80;63.20;;;;;;5030102;28;20041;-84
2022/04/24 12:03:35;;;;;;;2.85;1.20;;;24.10;64.40;;;;;;5057392;28;20020;-85
2022/04/24 12:06:02;;;;;;;1.77;1.10;;;23.30;64.70;;;;;;5041459;28;20025;-83
2022/04/24 12:09:06;;;;;;;3.35;1.17;;;22.30;65.00;;;;;;5064368;28;20040;-83
2022/04/24 12:11:33;;;;;;;11.02;4.00;;;21.20;71.40;;;;;;5055051;28;20100;-83
2022/04/24 12:14:07;;;;;;;7.22;3.90;;;19.90;85.40;;;;;;5045965;28;20041;-83
2022/04/24 12:16:35;;;;;;;19.35;5.53;;;19.00;93.10;;;;;;5057846;28;20031;-85
2022/04/24 12:19:02;;;;;;;12.65;4.47;;;18.10;99.90;;;;;;5053257;28;20032;-83
2022/04/24 12:21:31;;;;;;;12.18;3.40;;;17.60;99.90;;;;;;5051541;28;20021;-84
2022/04/24 12:23:57;;;;;;;9.68;4.07;;;18.10;99.90;;;;;;5061172;22;20096;-89
2022/04/24 12:26:24;;;;;;;5.55;3.03;;;20.10;99.90;;;;;;5040075;28;20036;-88
2022/04/24 12:28:50;;;;;;;7.30;3.17;;;22.70;98.60;;;;;;5058663;28;20039;-87
2022/04/24 12:31:27;;;;;;;9.70;4.40;;;24.50;95.30;;;;;;5042118;28;20156;-89
2022/04/24 12:33:55;;;;;;;6.82;4.28;;;25.80;92.80;;;;;;5061928;28;20033;-88
2022/04/24 12:36:21;;;;;;;8.43;3.60;;;27.10;91.00;;;;;;5060099;28;20105;-87
2022/04/24 12:38:59;;;;;;;10.52;3.83;;;28.80;87.90;;;;;;5058926;28;20047;-86
2022/04/24 12:41:27;;;;;;;6.35;3.15;;;29.70;79.90;;;;;;5065297;28;20021;-88
2022/04/24 12:43:58;;;;;;;6.75;3.40;;;29.60;78.60;;;;;;5060271;28;20078;-87
2022/04/24 12:46:24;;;;;;;5.97;2.90;;;30.50;76.30;;;;;;5062915;28;20017;-86
2022/04/24 12:48:52;;;;;;;3.40;2.10;;;31.40;72.20;;;;;;5027088;28;20049;-86
2022/04/24 12:51:26;;;;;;;4.63;2.47;;;32.10;67.20;;;;;;5041144;28;20044;-87